createdAt,value
2023-02-11T00:03:10.766Z,102021.84
2023-02-11T00:08:16.992Z,102017.53
2023-02-11T00:13:17.715Z,102000.34
2023-02-11T00:18:18.496Z,101992.09
2023-02-11T00:23:20.513Z,101991.16
2023-02-11T00:28:21.179Z,101997.59
2023-02-11T00:33:21.884Z,101980.06
2023-02-11T00:38:23.957Z,101962.00
2023-02-11T00:43:24.618Z,101958.50
2023-02-11T00:48:25.277Z,101946.56
2023-02-11T00:53:27.701Z,101926.88
2023-02-11T00:58:29.191Z,101918.47
2023-02-11T01:03:30.107Z,101914.09
2023-02-11T01:08:32.345Z,101895.72
2023-02-11T01:13:37.340Z,101889.03
2023-02-11T01:18:39.187Z,101895.34
2023-02-11T01:23:41.261Z,101913.84
2023-02-11T01:28:42.017Z,101916.16
2023-02-11T01:33:42.691Z,101911.00
2023-02-11T01:38:45.630Z,101921.88
2023-02-11T01:43:48.638Z,101905.31
2023-02-11T01:48:53.538Z,101898.22
2023-02-11T01:54:16.102Z,101894.00
2023-02-11T01:59:23.615Z,101882.66
2023-02-11T02:04:27.423Z,101876.16
2023-02-11T02:09:38.730Z,101871.16
2023-02-11T02:14:41.416Z,101871.09
2023-02-11T02:20:22.137Z,101864.22
2023-02-11T02:25:45.229Z,101872.75
2023-02-11T02:31:14.971Z,101877.44
2023-02-11T02:36:29.400Z,101862.19
2023-02-11T02:41:32.366Z,101844.31
2023-02-11T02:46:35.327Z,101830.25
2023-02-11T02:51:53.615Z,101831.97
2023-02-11T02:57:00.498Z,101825.31
2023-02-11T03:02:10.916Z,101814.06
2023-02-11T03:07:22.058Z,101821.03
2023-02-11T03:12:24.448Z,101832.69
2023-02-11T03:17:27.283Z,101847.50
2023-02-11T03:22:35.985Z,101838.28
2023-02-11T03:27:42.479Z,101819.03
2023-02-11T03:32:49.913Z,101796.66
2023-02-11T03:37:55.042Z,101807.06
2023-02-11T03:42:59.510Z,101780.22
2023-02-11T03:48:03.206Z,101774.44
2023-02-11T03:53:05.919Z,101772.63
2023-02-11T03:58:06.954Z,101749.50
2023-02-11T04:03:08.360Z,101762.97
2023-02-11T04:08:10.517Z,101776.41
2023-02-11T04:13:11.228Z,101747.19
2023-02-11T04:18:11.868Z,101745.50
2023-02-11T04:23:14.031Z,101758.50
2023-02-11T04:28:14.713Z,101764.38
2023-02-11T04:33:15.431Z,101761.09
2023-02-11T04:38:17.560Z,101775.88
2023-02-11T04:43:18.285Z,101776.78
2023-02-11T04:48:18.955Z,101801.63
2023-02-11T04:53:21.225Z,101783.31
2023-02-11T04:58:22.198Z,101789.25
2023-02-11T05:03:22.987Z,101784.94
2023-02-11T05:08:24.956Z,101798.47
2023-02-11T05:13:25.769Z,101788.50
2023-02-11T05:18:26.516Z,101799.16
2023-02-11T05:23:28.507Z,101781.69
2023-02-11T05:28:29.339Z,101789.31
2023-02-11T05:33:30.077Z,101778.25
2023-02-11T05:38:32.108Z,101790.19
2023-02-11T05:43:35.112Z,101766.09
2023-02-11T05:48:35.977Z,101771.81
2023-02-11T05:53:38.092Z,101774.44
2023-02-11T05:58:39.689Z,101781.38
2023-02-11T06:03:40.385Z,101774.56
2023-02-11T06:08:43.054Z,101763.28
2023-02-11T06:13:44.111Z,101755.31
2023-02-11T06:18:44.763Z,101759.09
2023-02-11T06:23:46.785Z,101766.75
2023-02-11T06:28:47.431Z,101743.50
2023-02-11T06:33:49.835Z,101742.78
2023-02-11T06:38:52.304Z,101745.22
2023-02-11T06:43:53.774Z,101742.25
2023-02-11T06:48:54.514Z,101737.00
2023-02-11T06:53:56.502Z,101743.19
2023-02-11T06:58:57.951Z,101737.41
2023-02-11T07:03:58.600Z,101733.75
2023-02-11T07:09:00.890Z,101724.56
2023-02-11T07:14:04.706Z,101738.25
2023-02-11T07:19:05.522Z,101733.09
2023-02-11T07:24:11.107Z,101730.53
2023-02-11T07:29:12.094Z,101738.44
2023-02-11T07:34:12.818Z,101753.59
2023-02-11T07:39:14.835Z,101763.91
2023-02-11T07:44:15.677Z,101761.56
2023-02-11T07:49:16.439Z,101752.06
2023-02-11T07:54:18.812Z,101759.09
2023-02-11T07:59:19.783Z,101753.56
2023-02-11T08:04:20.449Z,101756.38
2023-02-11T08:09:22.470Z,101748.59
2023-02-11T08:14:25.224Z,101747.97
2023-02-11T08:19:26.893Z,101756.84
2023-02-11T08:24:29.056Z,101752.91
2023-02-11T08:29:29.814Z,101750.31
2023-02-11T08:34:30.628Z,101748.78
2023-02-11T08:39:32.760Z,101740.09
2023-02-11T08:44:33.423Z,101734.19
2023-02-11T08:49:34.212Z,101734.47
2023-02-11T08:54:36.219Z,101742.31
2023-02-11T08:59:37.137Z,101751.09
2023-02-11T09:04:37.816Z,101744.88
2023-02-11T09:09:40.015Z,101752.91
2023-02-11T09:14:41.997Z,101764.31
2023-02-11T09:19:42.762Z,101750.66
2023-02-11T09:24:44.827Z,101759.31
2023-02-11T09:29:45.620Z,101765.25
2023-02-11T09:34:46.364Z,101777.16
2023-02-11T09:39:48.610Z,101778.03
2023-02-11T09:44:50.078Z,101776.38
2023-02-11T09:49:54.663Z,101775.50
2023-02-11T09:54:59.041Z,101769.00
2023-02-11T09:59:59.813Z,101766.19
2023-02-11T10:05:14.452Z,101760.22
2023-02-11T10:10:28.210Z,101768.47
2023-02-11T10:15:43.405Z,101768.88
2023-02-11T10:20:52.016Z,101756.53
2023-02-11T10:25:57.094Z,101745.84
2023-02-11T10:31:00.761Z,101759.44
2023-02-11T10:36:01.768Z,101737.88
2023-02-11T10:41:03.905Z,101758.88
2023-02-11T10:46:06.587Z,101763.56
2023-02-11T10:51:18.621Z,101751.41
2023-02-11T10:56:28.076Z,101738.63
2023-02-11T11:01:44.416Z,101729.06
2023-02-11T11:06:45.314Z,101738.94
2023-02-11T11:11:54.496Z,101722.50
2023-02-11T11:16:56.196Z,101733.78
2023-02-11T11:21:57.711Z,101747.84
2023-02-11T11:27:02.409Z,101737.72
2023-02-11T11:32:06.533Z,101728.97
2023-02-11T11:37:13.004Z,101726.41
2023-02-11T11:42:29.504Z,101729.13
2023-02-11T11:47:35.396Z,101731.88
2023-02-11T11:52:42.619Z,101739.72
2023-02-11T11:57:45.117Z,101741.44
2023-02-11T12:03:09.942Z,101744.03
2023-02-11T12:08:22.458Z,101749.38
2023-02-11T12:13:40.645Z,101733.75
2023-02-11T12:19:07.814Z,101726.91
2023-02-11T12:24:21.692Z,101727.53
2023-02-11T12:29:33.032Z,101724.94
2023-02-11T12:35:00.223Z,101730.06
2023-02-11T12:40:13.540Z,101721.16
2023-02-11T12:45:28.265Z,101720.28
2023-02-11T12:50:35.979Z,101738.25
2023-02-11T12:55:41.076Z,101722.56
2023-02-11T13:00:49.589Z,101732.09
2023-02-11T13:05:55.014Z,101713.19
2023-02-11T13:10:58.805Z,101708.94
2023-02-11T13:16:06.680Z,101704.78
2023-02-11T13:21:23.175Z,101689.03
2023-02-11T13:26:31.980Z,101689.25
2023-02-11T13:31:34.258Z,101679.78
2023-02-11T13:36:35.245Z,101685.03
2023-02-11T13:41:39.794Z,101701.38
2023-02-11T13:46:55.665Z,101700.75
2023-02-11T13:51:57.663Z,101681.94
2023-02-11T13:57:24.576Z,101681.03
2023-02-11T14:02:48.283Z,101690.69
2023-02-11T14:08:33.090Z,101713.06
2023-02-11T14:13:34.847Z,101706.88
2023-02-11T14:19:04.146Z,101713.66
2023-02-11T14:24:47.921Z,101708.47
2023-02-11T14:29:59.954Z,101703.19
2023-02-11T14:35:10.556Z,101700.59
2023-02-11T14:40:19.712Z,101694.84
2023-02-11T14:45:24.902Z,101706.91
2023-02-11T14:50:29.079Z,101716.41
2023-02-11T14:55:33.173Z,101711.34
2023-02-11T15:00:34.437Z,101698.31
2023-02-11T15:05:37.276Z,101698.44
2023-02-11T15:10:43.614Z,101715.75
2023-02-11T15:15:46.585Z,101707.94
2023-02-11T15:20:49.636Z,101716.50
2023-02-11T15:25:53.031Z,101709.78
2023-02-11T15:31:02.426Z,101707.25
2023-02-11T15:36:05.208Z,101711.69
2023-02-11T15:41:07.563Z,101721.19
2023-02-11T15:46:12.248Z,101717.50
2023-02-11T15:51:29.469Z,101720.19
2023-02-11T15:56:33.266Z,101716.59
2023-02-11T16:01:35.887Z,101728.78
2023-02-11T16:06:40.561Z,101730.31
2023-02-11T16:11:56.648Z,101729.38
2023-02-11T16:17:00.903Z,101739.66
2023-02-11T16:22:10.324Z,101749.81
2023-02-11T16:27:22.315Z,101762.66
2023-02-11T16:32:25.503Z,101763.22
2023-02-11T16:37:28.264Z,101766.44
2023-02-11T16:42:29.020Z,101770.41
2023-02-11T16:47:32.104Z,101772.78
2023-02-11T16:52:34.858Z,101771.66
2023-02-11T16:57:35.546Z,101774.84
2023-02-11T17:02:38.286Z,101780.78
2023-02-11T17:07:40.460Z,101783.25
2023-02-11T17:12:41.213Z,101792.50
2023-02-11T17:17:41.931Z,101799.28
2023-02-11T17:22:44.166Z,101785.56
2023-02-11T17:27:45.520Z,101795.75
2023-02-11T17:32:47.288Z,101811.22
2023-02-11T17:37:49.500Z,101825.22
2023-02-11T17:42:51.275Z,101814.25
2023-02-11T17:47:52.339Z,101794.72
2023-02-11T17:52:54.956Z,101817.09
2023-02-11T17:57:56.065Z,101824.03
2023-02-11T18:02:57.806Z,101828.28
2023-02-11T18:07:59.857Z,101833.28
2023-02-11T18:13:00.828Z,101851.19
2023-02-11T18:18:01.651Z,101857.16
2023-02-11T18:23:04.325Z,101845.09
2023-02-11T18:28:05.218Z,101867.50
2023-02-11T18:33:08.864Z,101867.34
2023-02-11T18:38:10.965Z,101874.16
2023-02-11T18:43:11.681Z,101867.28
2023-02-11T18:48:13.074Z,101885.31
2023-02-11T18:53:16.137Z,101900.16
2023-02-11T18:58:17.930Z,101896.69
2023-02-11T19:03:18.742Z,101898.41
2023-02-11T19:08:20.792Z,101912.22
2023-02-11T19:13:21.459Z,101916.38
2023-02-11T19:18:22.245Z,101926.78
2023-02-11T19:23:24.300Z,101942.44
2023-02-11T19:28:25.170Z,101943.44
2023-02-11T19:33:26.218Z,101949.41
2023-02-11T19:38:28.318Z,101955.44
2023-02-11T19:43:29.268Z,101958.88
2023-02-11T19:48:30.139Z,101948.72
2023-02-11T19:53:32.378Z,101963.38
2023-02-11T19:58:33.069Z,101978.19
2023-02-11T20:03:33.926Z,101975.63
2023-02-11T20:08:36.642Z,101982.50
2023-02-11T20:13:37.815Z,101995.25
2023-02-11T20:18:39.501Z,102003.81
2023-02-11T20:23:41.647Z,102004.75
2023-02-11T20:28:42.917Z,101991.75
2023-02-11T20:33:44.794Z,102006.28
2023-02-11T20:38:47.244Z,101991.75
2023-02-11T20:43:49.764Z,101983.97
2023-02-11T20:48:51.133Z,101981.50
2023-02-11T20:53:53.869Z,101977.19
2023-02-11T20:58:54.624Z,101968.56
2023-02-11T21:03:58.099Z,101979.00
2023-02-11T21:09:00.433Z,101983.28
2023-02-11T21:14:03.029Z,101985.00
2023-02-11T21:19:04.016Z,101993.69
2023-02-11T21:24:07.322Z,101993.84
2023-02-11T21:29:09.392Z,102007.72
2023-02-11T21:34:11.590Z,102005.19
2023-02-11T21:39:15.202Z,102012.19
2023-02-11T21:44:16.019Z,102021.72
2023-02-11T21:49:16.782Z,102026.94
2023-02-11T21:54:18.883Z,102032.16
2023-02-11T21:59:19.672Z,102036.44
2023-02-11T22:04:20.423Z,102049.41
2023-02-11T22:09:22.501Z,102043.41
2023-02-11T22:14:23.268Z,102051.91
2023-02-11T22:19:25.037Z,102048.50
2023-02-11T22:24:27.185Z,102057.13
2023-02-11T22:29:27.884Z,102064.63
2023-02-11T22:34:28.547Z,102070.03
2023-02-11T22:39:31.130Z,102075.31
2023-02-11T22:44:31.829Z,102067.69
2023-02-11T22:49:33.288Z,102072.13
2023-02-11T22:54:36.141Z,102089.38
2023-02-11T22:59:36.862Z,102095.31
2023-02-11T23:04:37.586Z,102109.16
2023-02-11T23:09:39.628Z,102110.94
2023-02-11T23:14:40.286Z,102117.88
2023-02-11T23:19:41.007Z,102115.38
2023-02-11T23:24:43.172Z,102117.97
2023-02-11T23:29:43.902Z,102119.72
2023-02-11T23:34:44.817Z,102129.28
2023-02-11T23:39:46.858Z,102127.69
2023-02-11T23:44:47.740Z,102124.94
2023-02-11T23:49:48.436Z,102129.31
2023-02-11T23:54:50.447Z,102130.34
2023-02-11T23:59:51.283Z,102124.31
